Terminal Aerodrome Forecast
Issued by NWS

Home | Current Version | Previous Version | Text Only | Print | Product List | Glossary On
Versions: 1 2 3 4 5 6 7 8 9 10 11 12 13 14 15 16 17 18 19 20 21 22 23 24 25 26 27 28 29 30 31 32 33 34 35 36 37 38 39 40 41 42 43 44 45 46 47 48
000
FTUS43 KDTX 231129
TAFYIP
TAF
KYIP 231129Z 2312/2412 12008KT 3SM -SHRA BR OVC003
     FM231500 16006KT 5SM BR VCSH OVC004
     FM231700 22010KT P6SM OVC009
     FM232000 26012KT P6SM OVC020
     FM240300 28006KT P6SM BKN025=

USA.gov is the U.S. government's official web portal to all federal, state and local government web resources and services.